Time;durP1;ratioP1;P1;durP2;ratioP2;P2;SDS_P1;SDS_P2;PMS_P1;PMS_P2;Temp;Humidity;BMP_temperature;BMP_pressure;BME280_temperature;BME280_humidity;BME280_pressure;Samples;Min_cycle;Max_cycle;Signal;HPM_P1;HPM_P2
2023/11/08 00:00:34;;;;;;;8.10;4.05;;;7.10;99.90;;;;;;4953352;28;20028;-93
2023/11/08 00:03:00;;;;;;;14.43;4.22;;;7.10;99.90;;;;;;4936215;29;20043;-92
2023/11/08 00:05:28;;;;;;;6.95;4.13;;;7.10;99.90;;;;;;4952331;28;20032;-93
2023/11/08 00:07:54;;;;;;;10.00;3.92;;;7.10;99.90;;;;;;4952608;28;20032;-93
2023/11/08 00:10:20;;;;;;;19.20;4.20;;;7.00;99.90;;;;;;4952750;28;20078;-91
2023/11/08 00:12:46;;;;;;;7.00;2.90;;;7.00;99.90;;;;;;4953189;28;20035;-94
2023/11/08 00:15:11;;;;;;;8.65;4.45;;;7.00;99.90;;;;;;4953180;29;20028;-91
2023/11/08 00:17:38;;;;;;;8.57;3.85;;;7.00;99.90;;;;;;4954324;28;20055;-94
2023/11/08 00:20:09;;;;;;;10.02;3.50;;;7.00;99.90;;;;;;4938644;29;20028;-92
2023/11/08 00:22:34;;;;;;;6.45;3.05;;;6.90;99.90;;;;;;4954955;29;20039;-93
2023/11/08 00:25:00;;;;;;;11.05;4.15;;;6.90;99.90;;;;;;4955112;28;20024;-93
2023/11/08 00:27:30;;;;;;;7.78;3.15;;;6.90;99.90;;;;;;4955569;28;20035;-92
2023/11/08 00:29:56;;;;;;;11.83;5.10;;;6.90;99.90;;;;;;4958211;28;20091;-92
2023/11/08 00:32:21;;;;;;;10.90;4.00;;;6.90;99.90;;;;;;4973924;28;20315;-91
2023/11/08 00:34:51;;;;;;;7.75;3.50;;;6.90;99.90;;;;;;4974061;28;20105;-90
2023/11/08 00:37:18;;;;;;;8.43;3.45;;;6.90;99.90;;;;;;4957199;28;20063;-90
2023/11/08 00:39:44;;;;;;;17.35;4.00;;;6.90;99.90;;;;;;4973571;28;20031;-91
2023/11/08 00:42:10;;;;;;;7.75;3.63;;;6.90;99.90;;;;;;4972760;28;20028;-92
2023/11/08 00:44:36;;;;;;;14.48;4.18;;;7.00;99.90;;;;;;4965332;28;20079;-92
2023/11/08 00:47:01;;;;;;;9.82;3.72;;;7.00;99.90;;;;;;4961020;28;20454;-91
2023/11/08 00:49:28;;;;;;;12.50;3.63;;;7.00;99.90;;;;;;4959382;28;20078;-93
2023/11/08 00:51:54;;;;;;;8.68;3.83;;;7.00;99.90;;;;;;4955501;28;20047;-92
2023/11/08 00:54:19;;;;;;;9.07;3.40;;;7.00;99.90;;;;;;4955065;28;20043;-91
2023/11/08 00:56:45;;;;;;;10.25;3.70;;;7.00;99.90;;;;;;4957282;28;20086;-91
2023/11/08 00:59:11;;;;;;;8.88;3.00;;;7.00;99.90;;;;;;4961375;28;20039;-94
2023/11/08 01:01:36;;;;;;;10.20;3.70;;;7.00;99.90;;;;;;4960647;28;20170;-92
2023/11/08 01:04:10;;;;;;;7.40;3.13;;;7.00;99.90;;;;;;4944449;28;20035;-92
2023/11/08 01:06:40;;;;;;;9.32;3.25;;;7.00;99.90;;;;;;4941535;29;20114;-93
2023/11/08 01:09:07;;;;;;;6.32;2.85;;;7.00;99.90;;;;;;4940415;29;20046;-91
2023/11/08 01:11:33;;;;;;;7.47;3.00;;;7.00;99.90;;;;;;4940855;29;20063;-93
2023/11/08 01:14:01;;;;;;;13.35;3.15;;;7.00;99.90;;;;;;4940221;29;20058;-94
2023/11/08 01:16:30;;;;;;;5.50;2.40;;;7.00;99.90;;;;;;4956500;28;20036;-92
2023/11/08 01:18:55;;;;;;;7.38;2.85;;;6.90;99.90;;;;;;4940528;29;20031;-92
2023/11/08 01:21:22;;;;;;;5.03;2.67;;;6.90;99.90;;;;;;4924589;29;20091;-92
2023/11/08 01:23:48;;;;;;;12.02;3.85;;;7.00;99.90;;;;;;4940420;29;20027;-93
2023/11/08 01:26:14;;;;;;;10.93;2.88;;;6.90;99.90;;;;;;4940221;29;20031;-94
2023/11/08 01:28:40;;;;;;;9.80;3.10;;;6.90;99.90;;;;;;4940515;29;20583;-94
2023/11/08 01:31:06;;;;;;;9.75;2.17;;;6.90;99.90;;;;;;4955887;29;20039;-93
2023/11/08 01:33:31;;;;;;;5.97;2.50;;;6.90;99.90;;;;;;4939616;29;20079;-92
2023/11/08 01:35:57;;;;;;;7.60;2.28;;;6.90;99.90;;;;;;4939869;29;20397;-94
2023/11/08 01:38:23;;;;;;;7.28;1.88;;;6.90;99.90;;;;;;4938871;29;20076;-94
2023/11/08 01:40:49;;;;;;;14.32;3.13;;;6.90;99.90;;;;;;4938782;29;20430;-93
2023/11/08 01:43:31;;;;;;;6.85;1.80;;;6.90;99.90;;;;;;4938496;29;20051;-93
2023/11/08 01:46:24;;;;;;;8.40;1.85;;;6.90;99.90;;;;;;4955389;28;20059;-93
2023/11/08 01:48:53;;;;;;;9.48;1.77;;;6.90;99.90;;;;;;4955113;29;20490;-92
2023/11/08 01:51:19;;;;;;;4.13;1.70;;;6.90;99.90;;;;;;4939840;29;20023;-94
2023/11/08 01:53:47;;;;;;;4.75;1.98;;;6.90;99.90;;;;;;4939035;29;20027;-92
2023/11/08 01:56:14;;;;;;;7.70;3.75;;;6.90;99.90;;;;;;4945545;29;20024;-93
2023/11/08 01:58:41;;;;;;;4.93;2.25;;;6.80;99.90;;;;;;4948669;29;20075;-92
2023/11/08 02:01:10;;;;;;;3.97;1.80;;;6.80;99.90;;;;;;4944379;29;20466;-93
2023/11/08 02:03:39;;;;;;;5.03;1.60;;;6.90;99.90;;;;;;4974154;28;20094;-92
2023/11/08 02:06:10;;;;;;;8.30;1.50;;;6.80;99.90;;;;;;4955352;29;20022;-91
2023/11/08 02:08:40;;;;;;;8.07;1.30;;;6.80;99.90;;;;;;4944120;29;20572;-92
2023/11/08 02:11:07;;;;;;;4.88;1.50;;;6.80;99.90;;;;;;4950412;29;20032;-93
2023/11/08 02:13:33;;;;;;;8.52;1.30;;;6.80;99.90;;;;;;4939474;29;20528;-93
2023/11/08 02:15:59;;;;;;;5.82;1.23;;;6.80;99.90;;;;;;4940477;29;20247;-93
2023/11/08 02:18:26;;;;;;;5.35;1.35;;;6.80;99.90;;;;;;4955294;28;20036;-92
2023/11/08 02:20:52;;;;;;;5.05;1.23;;;6.80;99.90;;;;;;4938438;29;20023;-92
2023/11/08 02:23:18;;;;;;;6.22;1.38;;;6.80;99.90;;;;;;4938508;29;20505;-91
2023/11/08 02:25:45;;;;;;;10.95;1.23;;;6.80;99.90;;;;;;4939539;29;20056;-93
2023/11/08 02:28:11;;;;;;;6.78;1.17;;;6.80;99.90;;;;;;4938302;29;20031;-91
2023/11/08 02:30:37;;;;;;;5.65;1.15;;;6.80;99.90;;;;;;4938310;29;20492;-93
2023/11/08 02:33:03;;;;;;;5.88;1.00;;;6.70;99.90;;;;;;4954434;28;20043;-91
2023/11/08 02:35:28;;;;;;;7.18;1.30;;;6.70;99.90;;;;;;4937784;29;20023;-93
2023/11/08 02:37:55;;;;;;;4.07;1.13;;;6.70;99.90;;;;;;4937753;29;20470;-93
2023/11/08 02:40:21;;;;;;;5.45;1.27;;;6.70;99.90;;;;;;4938575;29;20462;-94
2023/11/08 02:42:47;;;;;;;7.70;1.10;;;6.70;99.90;;;;;;4937993;29;20051;-94
2023/11/08 02:45:13;;;;;;;8.68;1.40;;;6.70;99.90;;;;;;4938272;29;20052;-93
2023/11/08 02:47:39;;;;;;;11.07;1.85;;;6.70;99.90;;;;;;4938557;29;20047;-92
2023/11/08 02:50:06;;;;;;;2.67;1.35;;;6.70;99.90;;;;;;4957339;28;20489;-93
2023/11/08 02:52:32;;;;;;;7.65;1.35;;;6.70;99.90;;;;;;4938705;29;20036;-93
2023/11/08 02:54:58;;;;;;;6.32;1.52;;;6.70;99.90;;;;;;4938029;29;20067;-93
2023/11/08 02:57:24;;;;;;;9.40;1.55;;;6.70;99.90;;;;;;4938171;29;20127;-92
2023/11/08 02:59:50;;;;;;;8.85;1.25;;;6.70;99.90;;;;;;4938611;29;20059;-92
2023/11/08 03:02:15;;;;;;;5.63;1.15;;;6.70;99.90;;;;;;4938840;29;20122;-93
2023/11/08 03:04:41;;;;;;;7.15;1.85;;;6.70;99.90;;;;;;4938132;29;20055;-94
2023/11/08 03:07:07;;;;;;;9.10;1.13;;;6.80;99.90;;;;;;4955080;28;20043;-93
2023/11/08 03:09:34;;;;;;;9.15;1.42;;;6.70;99.90;;;;;;4939540;29;20020;-93
2023/11/08 03:12:00;;;;;;;12.60;1.50;;;6.80;99.90;;;;;;4939311;29;20044;-95
2023/11/08 03:14:26;;;;;;;9.07;1.55;;;6.80;99.90;;;;;;4940062;29;20470;-93
2023/11/08 03:16:53;;;;;;;13.25;1.40;;;6.80;99.90;;;;;;4945588;29;20027;-93
2023/11/08 03:19:20;;;;;;;9.90;1.50;;;6.80;99.90;;;;;;4945221;29;20048;-92
2023/11/08 03:21:46;;;;;;;5.50;1.17;;;6.80;99.90;;;;;;4963133;29;20031;-92
2023/11/08 03:24:12;;;;;;;15.27;2.58;;;6.80;99.90;;;;;;4962092;28;20035;-93
2023/11/08 03:26:38;;;;;;;11.13;2.33;;;6.90;99.90;;;;;;4961912;28;20054;-93
2023/11/08 03:29:04;;;;;;;12.90;2.22;;;6.90;99.90;;;;;;4959105;28;20155;-94
2023/11/08 03:31:31;;;;;;;8.70;1.98;;;6.90;99.90;;;;;;4958736;29;20035;-93
2023/11/08 03:34:00;;;;;;;9.38;2.22;;;6.90;99.90;;;;;;4957400;28;20484;-93
2023/11/08 03:36:27;;;;;;;10.82;1.80;;;6.90;99.90;;;;;;4959838;28;20082;-92
2023/11/08 03:38:53;;;;;;;10.85;2.10;;;6.90;99.90;;;;;;4958008;28;20449;-93
2023/11/08 03:41:18;;;;;;;10.02;2.42;;;6.90;99.90;;;;;;4957481;29;20035;-93
2023/11/08 03:43:44;;;;;;;12.25;3.10;;;6.90;99.90;;;;;;4957061;28;20059;-94
2023/11/08 03:46:10;;;;;;;9.43;3.15;;;6.90;99.90;;;;;;4959846;28;20043;-93
2023/11/08 03:48:37;;;;;;;11.73;3.50;;;7.00;99.90;;;;;;4961398;28;20061;-94
2023/11/08 03:51:03;;;;;;;14.10;4.28;;;6.90;99.90;;;;;;4963562;28;20035;-92
2023/11/08 03:53:30;;;;;;;16.23;4.63;;;7.00;99.90;;;;;;4964627;28;20050;-95
2023/11/08 03:55:56;;;;;;;9.30;4.55;;;6.90;99.90;;;;;;4967772;28;20027;-93
2023/11/08 03:58:22;;;;;;;17.70;4.40;;;6.90;99.90;;;;;;4968208;28;20033;-93
2023/11/08 04:00:49;;;;;;;20.33;4.40;;;6.90;99.90;;;;;;4967633;28;20023;-92
2023/11/08 04:03:15;;;;;;;16.55;4.88;;;6.90;99.90;;;;;;4962389;28;20030;-93
2023/11/08 04:05:40;;;;;;;12.60;4.03;;;6.90;99.90;;;;;;4960645;28;20021;-92
2023/11/08 04:08:07;;;;;;;15.98;4.28;;;6.90;99.90;;;;;;4959351;28;20381;-93
2023/11/08 04:10:33;;;;;;;17.27;4.63;;;6.90;99.90;;;;;;4974954;28;20027;-92
2023/11/08 04:12:59;;;;;;;9.32;4.10;;;6.90;99.90;;;;;;4974832;28;20035;-93
2023/11/08 04:15:25;;;;;;;14.15;4.15;;;6.80;99.90;;;;;;4974637;28;20035;-93
2023/11/08 04:17:50;;;;;;;7.45;3.65;;;6.80;99.90;;;;;;4973830;28;20034;-92
2023/11/08 04:20:16;;;;;;;12.43;4.43;;;6.80;99.90;;;;;;4973977;28;20106;-92
2023/11/08 04:22:43;;;;;;;14.85;4.47;;;6.80;99.90;;;;;;4973646;28;20042;-93
2023/11/08 04:25:11;;;;;;;14.30;4.95;;;6.80;99.90;;;;;;4958450;28;20027;-92
2023/11/08 04:27:37;;;;;;;11.85;3.92;;;6.80;99.90;;;;;;4974753;28;20042;-91
2023/11/08 04:30:04;;;;;;;9.30;4.55;;;6.80;99.90;;;;;;4974404;28;20109;-92
2023/11/08 04:32:29;;;;;;;9.52;4.03;;;6.80;99.90;;;;;;4978117;28;20129;-92
2023/11/08 04:34:55;;;;;;;15.73;3.80;;;6.80;99.90;;;;;;4980857;28;20050;-92
2023/11/08 04:37:21;;;;;;;12.65;4.15;;;6.90;99.90;;;;;;4979056;28;20475;-94
2023/11/08 04:39:49;;;;;;;10.57;4.30;;;6.90;99.90;;;;;;4981200;28;20034;-94
2023/11/08 04:42:14;;;;;;;8.40;4.15;;;6.90;99.90;;;;;;4963184;28;20027;-93
2023/11/08 04:44:47;;;;;;;14.57;5.25;;;6.90;99.90;;;;;;4979694;28;20492;-93
2023/11/08 04:47:20;;;;;;;13.35;3.92;;;6.90;99.90;;;;;;4979955;28;20119;-93
2023/11/08 04:49:47;;;;;;;16.98;3.90;;;6.90;99.90;;;;;;4979050;28;20026;-93
2023/11/08 04:52:14;;;;;;;8.40;3.60;;;6.90;99.90;;;;;;4977444;28;20031;-92
2023/11/08 04:54:39;;;;;;;11.50;5.28;;;6.90;99.90;;;;;;4979359;28;20037;-94
2023/11/08 04:57:05;;;;;;;10.60;4.40;;;6.90;99.90;;;;;;4980978;28;20026;-93
2023/11/08 04:59:31;;;;;;;11.45;5.00;;;7.00;99.90;;;;;;4983127;28;20027;-93
2023/11/08 05:01:58;;;;;;;18.65;5.03;;;7.00;99.90;;;;;;4982447;28;20054;-93
2023/11/08 05:04:24;;;;;;;13.57;4.28;;;7.00;99.90;;;;;;4980323;28;20611;-91
2023/11/08 05:06:49;;;;;;;13.52;4.32;;;7.00;99.90;;;;;;4982448;28;20122;-94
2023/11/08 05:09:15;;;;;;;12.27;3.92;;;6.90;99.90;;;;;;4981839;28;20476;-93
2023/11/08 05:11:42;;;;;;;9.45;4.47;;;7.00;99.90;;;;;;4983545;28;20487;-94
2023/11/08 05:14:08;;;;;;;7.90;3.38;;;6.90;99.90;;;;;;4967229;28;20027;-94
2023/11/08 05:16:34;;;;;;;15.10;4.53;;;6.90;99.90;;;;;;4985101;28;20531;-94
2023/11/08 05:18:59;;;;;;;11.30;3.83;;;7.00;99.90;;;;;;4982676;28;20369;-94
2023/11/08 05:21:26;;;;;;;11.13;3.88;;;7.00;99.90;;;;;;4985042;28;20054;-94
2023/11/08 05:23:52;;;;;;;9.02;4.00;;;7.10;99.90;;;;;;4987129;28;20030;-93
2023/11/08 05:26:19;;;;;;;9.70;4.10;;;7.10;99.90;;;;;;4987556;28;20027;-93
2023/11/08 05:28:45;;;;;;;6.82;3.88;;;7.10;99.90;;;;;;4990305;28;20030;-95
2023/11/08 05:31:11;;;;;;;8.80;4.03;;;7.10;99.90;;;;;;4974563;28;20098;-93
2023/11/08 05:33:40;;;;;;;9.25;3.67;;;7.10;99.90;;;;;;4987469;28;20058;-93
2023/11/08 05:36:06;;;;;;;5.93;3.13;;;7.00;99.90;;;;;;4986462;28;20041;-92
2023/11/08 05:38:32;;;;;;;10.52;4.03;;;7.00;99.90;;;;;;4983783;28;20507;-94
2023/11/08 05:40:58;;;;;;;8.57;3.63;;;7.00;99.90;;;;;;4983529;28;20073;-95
2023/11/08 05:43:25;;;;;;;12.15;5.35;;;7.00;99.90;;;;;;4982760;28;20120;-92
2023/11/08 05:45:51;;;;;;;6.60;3.13;;;7.00;99.90;;;;;;4996629;28;20051;-93
2023/11/08 05:48:18;;;;;;;6.28;2.95;;;7.00;99.90;;;;;;4982563;28;20033;-93
2023/11/08 05:50:44;;;;;;;6.43;2.92;;;7.00;99.90;;;;;;4982128;28;20027;-95
2023/11/08 05:53:14;;;;;;;6.43;2.72;;;7.00;99.90;;;;;;5001688;28;20038;-93
2023/11/08 05:55:40;;;;;;;5.88;2.65;;;7.00;99.90;;;;;;4987789;28;20035;-95
2023/11/08 05:58:06;;;;;;;7.65;2.50;;;7.00;99.90;;;;;;4984874;28;20030;-95
2023/11/08 06:00:34;;;;;;;5.28;2.17;;;7.10;99.90;;;;;;4984667;28;20068;-94
2023/11/08 06:03:00;;;;;;;4.78;1.80;;;7.10;99.90;;;;;;4988740;28;20054;-95
2023/11/08 06:05:28;;;;;;;7.25;1.85;;;7.00;99.90;;;;;;4989155;28;20027;-93
2023/11/08 06:07:56;;;;;;;4.15;2.10;;;7.10;99.90;;;;;;4989188;28;20046;-92
2023/11/08 06:10:22;;;;;;;5.35;2.00;;;7.10;99.90;;;;;;4973523;28;20035;-93
2023/11/08 06:12:47;;;;;;;5.35;1.70;;;7.10;99.90;;;;;;4972897;28;20037;-93
2023/11/08 06:15:14;;;;;;;9.77;1.70;;;7.10;99.90;;;;;;4981030;28;20024;-90
2023/11/08 06:17:39;;;;;;;4.45;1.40;;;7.10;99.90;;;;;;4981790;28;20099;-95
2023/11/08 06:20:08;;;;;;;2.97;1.58;;;7.10;99.90;;;;;;4980093;28;20030;-93
2023/11/08 06:22:34;;;;;;;7.28;1.73;;;7.10;99.90;;;;;;4972416;28;20022;-93
2023/11/08 06:25:00;;;;;;;4.60;1.60;;;7.20;99.90;;;;;;4972683;28;20058;-95
2023/11/08 06:27:26;;;;;;;5.05;1.42;;;7.10;99.90;;;;;;4988555;28;20027;-94
2023/11/08 06:29:51;;;;;;;4.43;1.77;;;7.20;99.90;;;;;;4950988;28;20051;-93
2023/11/08 06:32:20;;;;;;;3.20;1.50;;;7.20;99.90;;;;;;4969148;28;20137;-93
2023/11/08 06:34:46;;;;;;;12.30;2.78;;;7.20;99.90;;;;;;4969884;28;20019;-94
2023/11/08 06:37:13;;;;;;;7.25;1.70;;;7.20;99.90;;;;;;4986118;28;20034;-94
2023/11/08 06:39:39;;;;;;;6.85;1.60;;;7.30;99.90;;;;;;4983441;28;20050;-94
2023/11/08 06:42:05;;;;;;;9.13;1.92;;;7.30;99.90;;;;;;4972587;28;20030;-93
2023/11/08 06:44:31;;;;;;;6.10;1.70;;;7.30;99.90;;;;;;4975082;28;20069;-93
2023/11/08 06:46:57;;;;;;;6.70;1.90;;;7.30;99.90;;;;;;4972711;28;20492;-94
2023/11/08 06:49:23;;;;;;;8.35;2.03;;;7.30;99.90;;;;;;4986998;28;20026;-93
2023/11/08 06:51:48;;;;;;;2.15;1.70;;;7.30;99.90;;;;;;4972420;28;20038;-93
2023/11/08 06:54:14;;;;;;;4.15;1.45;;;7.30;99.90;;;;;;4970630;28;20035;-95
2023/11/08 06:56:40;;;;;;;5.32;1.50;;;7.30;99.90;;;;;;4967321;28;20190;-93
2023/11/08 06:59:06;;;;;;;4.30;1.50;;;7.30;99.90;;;;;;4966781;28;20038;-94
2023/11/08 07:01:32;;;;;;;8.90;2.03;;;7.40;99.90;;;;;;4963359;28;20030;-94
2023/11/08 07:03:58;;;;;;;4.97;1.25;;;7.40;99.90;;;;;;4962988;28;20046;-94
2023/11/08 07:06:24;;;;;;;4.35;1.23;;;7.40;99.90;;;;;;4956265;28;20022;-93
2023/11/08 07:08:50;;;;;;;4.63;1.45;;;7.40;99.90;;;;;;4978428;28;20045;-94
2023/11/08 07:11:15;;;;;;;4.00;1.27;;;7.40;99.90;;;;;;4960096;28;20030;-94
2023/11/08 07:13:41;;;;;;;5.38;1.38;;;7.40;99.90;;;;;;4971532;28;20140;-93
2023/11/08 07:16:07;;;;;;;3.55;1.35;;;7.40;99.90;;;;;;4967847;28;20026;-93
2023/11/08 07:18:33;;;;;;;3.00;1.13;;;7.50;99.90;;;;;;4969962;28;20396;-93
2023/11/08 07:20:59;;;;;;;6.38;1.50;;;7.50;99.90;;;;;;4971525;28;20026;-93
2023/11/08 07:23:25;;;;;;;3.00;1.30;;;7.50;99.90;;;;;;4957178;28;20031;-93
2023/11/08 07:25:50;;;;;;;3.50;1.33;;;7.50;99.90;;;;;;4971450;28;20024;-92
2023/11/08 07:28:16;;;;;;;5.65;1.50;;;7.50;99.90;;;;;;4970643;28;20030;-94
2023/11/08 07:30:42;;;;;;;2.67;1.48;;;7.60;99.90;;;;;;4972914;28;20015;-94
2023/11/08 07:33:07;;;;;;;5.53;1.65;;;7.60;99.90;;;;;;4968454;28;20507;-94
2023/11/08 07:35:33;;;;;;;7.15;1.55;;;7.60;99.90;;;;;;4968266;28;20031;-93
2023/11/08 07:37:59;;;;;;;8.80;1.40;;;7.60;99.90;;;;;;4970445;28;20023;-93
2023/11/08 07:40:25;;;;;;;4.00;1.80;;;7.60;99.90;;;;;;4953930;28;20389;-93
2023/11/08 07:42:50;;;;;;;6.07;1.80;;;7.60;99.90;;;;;;4971800;28;20027;-95
2023/11/08 07:45:16;;;;;;;5.28;1.88;;;7.70;99.90;;;;;;4964217;28;20047;-94
2023/11/08 07:47:43;;;;;;;10.65;2.42;;;7.70;99.90;;;;;;4965670;28;20034;-92
2023/11/08 07:50:11;;;;;;;4.50;2.30;;;7.70;99.90;;;;;;4971408;28;20028;-95
2023/11/08 07:52:37;;;;;;;5.78;2.40;;;7.70;99.90;;;;;;4975400;28;20047;-94
2023/11/08 07:55:05;;;;;;;9.50;2.30;;;7.80;99.90;;;;;;4937331;29;20062;-92
2023/11/08 07:57:30;;;;;;;8.73;3.03;;;7.80;99.90;;;;;;4939194;29;20536;-92
2023/11/08 07:59:56;;;;;;;8.52;3.35;;;7.80;99.90;;;;;;4938176;29;20027;-95
2023/11/08 08:02:22;;;;;;;8.27;3.42;;;7.80;99.90;;;;;;4936509;29;20024;-93
2023/11/08 08:04:48;;;;;;;7.07;3.72;;;7.80;99.90;;;;;;4938956;29;20020;-96
2023/11/08 08:07:14;;;;;;;8.35;3.38;;;7.80;99.90;;;;;;4955853;28;20035;-93
2023/11/08 08:09:40;;;;;;;6.97;4.15;;;7.90;99.90;;;;;;4971662;28;20122;-93
2023/11/08 08:12:07;;;;;;;5.45;2.33;;;7.80;99.90;;;;;;4957235;28;20078;-93
2023/11/08 08:14:33;;;;;;;10.73;3.50;;;7.80;99.90;;;;;;4970926;28;20434;-93
2023/11/08 08:17:02;;;;;;;10.98;4.40;;;7.80;99.90;;;;;;4977179;28;20073;-94
2023/11/08 08:19:29;;;;;;;11.80;3.75;;;7.90;99.90;;;;;;4963743;28;20997;-95
2023/11/08 08:21:55;;;;;;;10.43;4.20;;;7.90;99.90;;;;;;4963448;28;20023;-95
2023/11/08 08:24:21;;;;;;;10.85;3.60;;;7.90;99.90;;;;;;4972886;28;20469;-94
2023/11/08 08:26:46;;;;;;;7.97;3.65;;;8.00;99.90;;;;;;4977004;28;20037;-94
2023/11/08 08:29:13;;;;;;;10.68;4.90;;;8.00;99.90;;;;;;4961367;28;20015;-96
2023/11/08 08:31:39;;;;;;;7.95;3.58;;;8.00;99.90;;;;;;4976034;28;20038;-95
2023/11/08 08:34:07;;;;;;;6.35;3.55;;;8.00;99.90;;;;;;4983615;28;20547;-95
2023/11/08 08:36:33;;;;;;;9.48;5.13;;;8.10;99.90;;;;;;4959151;28;20487;-94
2023/11/08 08:38:59;;;;;;;9.77;3.58;;;8.00;99.90;;;;;;4977551;28;20095;-94
2023/11/08 08:41:25;;;;;;;6.20;3.88;;;8.10;99.90;;;;;;4974248;28;20548;-94
2023/11/08 08:43:50;;;;;;;12.88;4.10;;;8.20;99.90;;;;;;4958804;28;20027;-93
2023/11/08 08:46:16;;;;;;;8.75;4.18;;;8.20;99.90;;;;;;4956540;28;20030;-94
2023/11/08 08:48:42;;;;;;;7.72;3.88;;;8.20;99.90;;;;;;4957218;28;20034;-94
2023/11/08 08:51:08;;;;;;;5.50;2.97;;;8.30;99.90;;;;;;4974447;28;20129;-94
2023/11/08 08:53:34;;;;;;;6.68;3.67;;;8.30;99.90;;;;;;4980760;28;20074;-93
2023/11/08 08:55:59;;;;;;;8.98;3.80;;;8.40;99.90;;;;;;4984258;28;20026;-93
2023/11/08 08:58:26;;;;;;;7.20;3.90;;;8.50;99.90;;;;;;4965338;28;20066;-94
2023/11/08 09:00:51;;;;;;;6.13;3.67;;;8.50;99.90;;;;;;4958513;28;20035;-94
2023/11/08 09:03:17;;;;;;;4.25;2.08;;;8.60;99.90;;;;;;4972421;28;20117;-95
2023/11/08 09:05:43;;;;;;;6.40;2.88;;;8.70;99.90;;;;;;4980403;28;20031;-93
2023/11/08 09:08:08;;;;;;;5.63;2.75;;;8.70;99.90;;;;;;4950226;28;20066;-94
2023/11/08 09:10:36;;;;;;;3.70;2.47;;;8.70;99.90;;;;;;4972017;28;20050;-94
2023/11/08 09:13:01;;;;;;;4.97;2.80;;;8.80;99.90;;;;;;4975077;28;20035;-94
2023/11/08 09:15:31;;;;;;;3.17;1.88;;;8.80;99.90;;;;;;4973578;28;20019;-92
2023/11/08 09:17:57;;;;;;;7.35;2.90;;;8.90;99.90;;;;;;4966933;28;20058;-93
2023/11/08 09:20:22;;;;;;;5.32;3.10;;;8.90;99.90;;;;;;4980148;28;20069;-94
2023/11/08 09:22:48;;;;;;;5.32;2.10;;;9.00;99.90;;;;;;4977969;28;20034;-94
2023/11/08 09:25:14;;;;;;;4.50;2.03;;;9.00;99.90;;;;;;4976266;28;20162;-95
2023/11/08 09:27:40;;;;;;;6.95;2.45;;;9.10;99.90;;;;;;4977875;28;20058;-92
2023/11/08 09:30:07;;;;;;;4.18;2.30;;;9.20;99.90;;;;;;4962745;28;20023;-93
2023/11/08 09:32:33;;;;;;;5.30;2.70;;;9.20;99.90;;;;;;4961722;28;20046;-94
2023/11/08 09:34:59;;;;;;;4.47;2.28;;;9.20;99.90;;;;;;4976829;28;20019;-94
2023/11/08 09:37:24;;;;;;;6.50;2.65;;;9.30;99.90;;;;;;4974749;28;20058;-94
2023/11/08 09:39:51;;;;;;;2.60;1.90;;;9.30;99.90;;;;;;4953190;28;20038;-95
2023/11/08 09:42:21;;;;;;;3.40;1.45;;;9.40;99.90;;;;;;4976530;28;20062;-93
2023/11/08 09:44:47;;;;;;;3.70;1.92;;;9.40;99.90;;;;;;4978400;28;20489;-94
2023/11/08 09:47:14;;;;;;;2.50;2.00;;;9.50;99.90;;;;;;4965609;28;20039;-95
2023/11/08 09:49:51;;;;;;;1.35;1.02;;;9.50;99.90;;;;;;4977922;28;20022;-93
2023/11/08 09:52:17;;;;;;;1.42;0.85;;;9.60;99.90;;;;;;4978879;28;20058;-93
2023/11/08 09:54:46;;;;;;;3.38;1.20;;;9.70;99.90;;;;;;4980702;28;20019;-94
2023/11/08 09:57:13;;;;;;;0.63;0.63;;;9.80;99.90;;;;;;4988630;28;20111;-94
2023/11/08 09:59:40;;;;;;;0.95;0.90;;;9.80;99.90;;;;;;4979648;28;20072;-95
2023/11/08 10:02:09;;;;;;;1.65;0.75;;;9.90;99.90;;;;;;4980407;28;20035;-96
2023/11/08 10:04:35;;;;;;;0.55;0.35;;;10.00;99.90;;;;;;4968721;28;20023;-95
2023/11/08 10:07:00;;;;;;;0.55;0.47;;;10.10;99.90;;;;;;4995035;28;20031;-92
2023/11/08 10:09:31;;;;;;;0.50;0.50;;;10.10;99.90;;;;;;4979474;28;20058;-94
2023/11/08 10:11:58;;;;;;;1.90;0.63;;;10.20;99.90;;;;;;4981008;28;20038;-93
2023/11/08 10:14:35;;;;;;;0.50;0.50;;;10.20;99.90;;;;;;4972645;28;20034;-94
2023/11/08 10:17:04;;;;;;;1.02;0.60;;;10.30;99.90;;;;;;4992499;28;20038;-95
2023/11/08 10:19:45;;;;;;;0.40;0.30;;;10.30;99.90;;;;;;4969000;28;20062;-94
2023/11/08 10:22:22;;;;;;;1.73;0.40;;;10.40;99.90;;;;;;4965933;28;20031;-94
2023/11/08 10:25:00;;;;;;;1.17;0.70;;;10.40;99.90;;;;;;4956600;28;20026;-93
2023/11/08 10:27:26;;;;;;;0.40;0.40;;;10.40;99.90;;;;;;4960230;29;20030;-94
2023/11/08 10:29:55;;;;;;;0.60;0.25;;;10.40;99.90;;;;;;4963266;28;20062;-94
2023/11/08 10:32:23;;;;;;;1.60;0.57;;;10.30;99.90;;;;;;4957644;28;20488;-93
2023/11/08 10:34:50;;;;;;;1.67;0.40;;;10.30;99.90;;;;;;4943668;29;20028;-95
2023/11/08 10:37:26;;;;;;;5.50;0.70;;;10.20;99.90;;;;;;4958913;28;20504;-95
2023/11/08 10:39:54;;;;;;;2.55;0.90;;;10.10;99.90;;;;;;4958132;28;20023;-95
2023/11/08 10:42:21;;;;;;;6.13;0.80;;;10.10;99.90;;;;;;4959314;28;20032;-96
2023/11/08 10:44:47;;;;;;;4.57;1.00;;;10.00;99.90;;;;;;4961231;28;20047;-94
2023/11/08 10:47:13;;;;;;;2.03;0.60;;;10.00;99.90;;;;;;4964121;28;20027;-95
2023/11/08 10:49:40;;;;;;;4.28;0.70;;;10.00;99.90;;;;;;4963429;28;20027;-95
2023/11/08 10:52:10;;;;;;;3.17;0.52;;;9.90;99.90;;;;;;4949340;29;20043;-94
2023/11/08 10:54:41;;;;;;;2.58;1.10;;;9.90;99.90;;;;;;4982942;28;20022;-96
2023/11/08 10:57:08;;;;;;;8.95;1.20;;;9.90;99.90;;;;;;4988148;28;20039;-94
2023/11/08 10:59:40;;;;;;;4.13;1.55;;;9.90;99.90;;;;;;4989085;28;20018;-96
2023/11/08 11:02:35;;;;;;;3.20;1.02;;;9.90;99.90;;;;;;4994226;28;20035;-95
2023/11/08 11:05:08;;;;;;;4.55;0.98;;;9.90;99.90;;;;;;4984343;28;20049;-96
2023/11/08 11:07:41;;;;;;;13.05;1.15;;;9.90;99.90;;;;;;4988961;28;20031;-96
2023/11/08 11:10:09;;;;;;;5.35;1.33;;;9.90;99.90;;;;;;4969420;28;20125;-96
2023/11/08 11:12:51;;;;;;;6.95;1.50;;;9.80;99.90;;;;;;4972517;28;20097;-96
2023/11/08 11:15:24;;;;;;;4.30;0.85;;;9.70;99.90;;;;;;4976576;28;20027;-92
2023/11/08 11:17:55;;;;;;;3.75;0.55;;;9.70;99.90;;;;;;4980772;28;20031;-95
2023/11/08 11:20:23;;;;;;;4.60;1.08;;;9.70;99.90;;;;;;4983144;28;20083;-94
2023/11/08 11:22:49;;;;;;;10.15;0.95;;;9.60;99.90;;;;;;4990665;28;20039;-95
2023/11/08 11:25:48;;;;;;;6.78;1.00;;;9.60;99.90;;;;;;4983109;28;20015;-94
2023/11/08 11:28:14;;;;;;;7.80;1.30;;;9.70;99.90;;;;;;4991724;28;20379;-95
2023/11/08 11:30:40;;;;;;;6.63;1.20;;;9.60;99.90;;;;;;4982015;28;20099;-94
2023/11/08 11:33:05;;;;;;;4.82;1.30;;;9.60;99.90;;;;;;4985083;28;20047;-95
2023/11/08 11:35:32;;;;;;;8.02;1.60;;;9.70;99.90;;;;;;4984186;28;20039;-95
2023/11/08 11:38:07;;;;;;;9.43;1.42;;;9.70;99.90;;;;;;4975595;28;20026;-93
2023/11/08 11:40:38;;;;;;;9.50;1.40;;;9.70;99.90;;;;;;4968246;28;20025;-93
2023/11/08 11:43:30;;;;;;;17.02;2.17;;;9.70;99.90;;;;;;4974304;28;20030;-94
2023/11/08 11:45:58;;;;;;;8.10;1.35;;;9.70;99.90;;;;;;4961739;28;20060;-95
2023/11/08 11:48:36;;;;;;;15.80;1.60;;;9.80;99.90;;;;;;4992743;28;20082;-94
2023/11/08 11:51:02;;;;;;;11.68;1.90;;;9.80;99.90;;;;;;4984156;28;20038;-93
2023/11/08 11:53:30;;;;;;;16.15;2.05;;;9.80;99.90;;;;;;4978324;28;20026;-93
2023/11/08 11:56:06;;;;;;;16.15;3.35;;;9.80;99.90;;;;;;4970551;28;20007;-93
2023/11/08 11:58:32;;;;;;;26.13;2.47;;;9.80;99.90;;;;;;5012754;28;20033;-93
2023/11/08 12:00:58;;;;;;;17.60;2.15;;;9.80;99.90;;;;;;4996314;28;20010;-93
2023/11/08 12:03:26;;;;;;;14.52;2.53;;;9.70;99.90;;;;;;4984032;28;20016;-93
2023/11/08 12:05:55;;;;;;;15.77;1.67;;;9.70;99.90;;;;;;4968569;28;20019;-94
2023/11/08 12:08:25;;;;;;;13.77;1.52;;;9.70;99.90;;;;;;4982017;28;20074;-94
2023/11/08 12:10:51;;;;;;;14.50;2.50;;;9.70;99.90;;;;;;4984411;28;20084;-94
2023/11/08 12:13:16;;;;;;;15.85;1.98;;;9.70;99.90;;;;;;4971655;28;20039;-95
2023/11/08 12:15:42;;;;;;;14.38;2.28;;;9.70;99.90;;;;;;4986541;28;20078;-93
2023/11/08 12:18:11;;;;;;;8.75;1.48;;;9.80;99.90;;;;;;4985797;28;20008;-95
2023/11/08 12:20:41;;;;;;;5.93;1.40;;;9.70;99.90;;;;;;4987066;28;20042;-94
2023/11/08 12:23:07;;;;;;;12.13;1.70;;;9.70;99.90;;;;;;4992569;28;20027;-94
2023/11/08 12:25:35;;;;;;;14.05;1.80;;;9.60;99.90;;;;;;4981988;28;20274;-94
2023/11/08 12:28:01;;;;;;;8.02;1.27;;;9.50;99.90;;;;;;4985274;28;20011;-94
2023/11/08 12:30:28;;;;;;;11.00;1.58;;;9.40;99.90;;;;;;4975884;28;20034;-94
2023/11/08 12:32:58;;;;;;;14.18;1.70;;;9.30;99.90;;;;;;4992482;28;20051;-92
2023/11/08 12:35:25;;;;;;;10.43;2.33;;;9.20;99.90;;;;;;4992332;28;20017;-93
2023/11/08 12:37:56;;;;;;;11.38;1.73;;;9.20;99.90;;;;;;4992618;28;20098;-93
2023/11/08 12:40:23;;;;;;;15.18;1.77;;;9.20;99.90;;;;;;4984540;28;20020;-95
2023/11/08 12:42:50;;;;;;;15.25;2.08;;;9.30;99.90;;;;;;4995722;28;20083;-94
2023/11/08 12:45:32;;;;;;;15.98;3.60;;;9.30;99.90;;;;;;4994321;28;20050;-94
2023/11/08 12:48:05;;;;;;;23.88;4.97;;;9.30;99.90;;;;;;4979743;28;20038;-96
2023/11/08 12:50:32;;;;;;;14.75;2.42;;;9.40;99.90;;;;;;4988411;28;20086;-94
2023/11/08 12:53:13;;;;;;;22.10;4.22;;;9.40;99.90;;;;;;4999087;28;20031;-94